Time;durP1;ratioP1;P1;durP2;ratioP2;P2;SDS_P1;SDS_P2;PMS_P1;PMS_P2;Temp;Humidity;BMP_temperature;BMP_pressure;BME280_temperature;BME280_humidity;BME280_pressure;Samples;Min_cycle;Max_cycle;Signal;HPM_P1;HPM_P2
2023/04/29 00:01:10;;;;;;;41.27;26.60;;;10.80;99.90;;;;;;5054904;28;20025;-78
2023/04/29 00:03:36;;;;;;;42.67;26.30;;;10.80;99.90;;;;;;5054851;28;20078;-78
2023/04/29 00:06:01;;;;;;;45.63;27.57;;;10.80;99.90;;;;;;5071804;28;20461;-79
2023/04/29 00:08:27;;;;;;;44.27;27.60;;;10.80;99.90;;;;;;5054711;28;20029;-80
2023/04/29 00:10:53;;;;;;;46.27;27.57;;;10.80;99.90;;;;;;5071426;28;20524;-78
2023/04/29 00:13:18;;;;;;;49.37;27.73;;;10.70;99.90;;;;;;5072858;28;20035;-78
2023/04/29 00:15:44;;;;;;;50.30;28.63;;;10.70;99.90;;;;;;5076435;28;20033;-77
2023/04/29 00:18:10;;;;;;;46.50;26.53;;;10.70;99.90;;;;;;5058586;28;20036;-78
2023/04/29 00:20:37;;;;;;;43.73;26.30;;;10.70;99.90;;;;;;5075301;28;20025;-78
2023/04/29 00:23:03;;;;;;;51.73;28.00;;;10.70;99.90;;;;;;5075182;28;20074;-78
2023/04/29 00:25:29;;;;;;;49.47;28.40;;;10.70;99.90;;;;;;5075354;28;20024;-78
2023/04/29 00:27:55;;;;;;;50.70;29.63;;;10.60;99.90;;;;;;5058244;28;20105;-78
2023/04/29 00:30:21;;;;;;;52.90;29.23;;;10.60;99.90;;;;;;5058305;28;20024;-78
2023/04/29 00:32:46;;;;;;;51.37;29.87;;;10.60;99.90;;;;;;5075018;28;20031;-78
2023/04/29 00:35:12;;;;;;;46.27;27.53;;;10.60;99.90;;;;;;5058303;28;20025;-78
2023/04/29 00:37:38;;;;;;;46.33;27.20;;;10.60;99.90;;;;;;5076224;28;20025;-78
2023/04/29 00:40:05;;;;;;;52.60;28.57;;;10.60;99.90;;;;;;5076127;28;20020;-78
2023/04/29 00:42:32;;;;;;;47.27;28.53;;;10.50;99.90;;;;;;5074956;28;20093;-78
2023/04/29 00:44:58;;;;;;;47.70;27.37;;;10.50;99.90;;;;;;5074704;28;20396;-79
2023/04/29 00:47:24;;;;;;;49.57;27.73;;;10.50;99.90;;;;;;5074841;28;20032;-78
2023/04/29 00:49:49;;;;;;;47.57;26.37;;;10.50;99.90;;;;;;5074790;28;20024;-77
2023/04/29 00:52:16;;;;;;;43.30;26.97;;;10.50;99.90;;;;;;5058083;28;20056;-78
2023/04/29 00:54:43;;;;;;;45.57;25.87;;;10.50;99.90;;;;;;5074600;28;20452;-78
2023/04/29 00:57:09;;;;;;;42.67;24.30;;;10.50;99.90;;;;;;5075752;28;20017;-78
2023/04/29 00:59:35;;;;;;;47.27;26.87;;;10.50;99.90;;;;;;5074605;28;20016;-78
2023/04/29 01:02:01;;;;;;;44.40;26.03;;;10.50;99.90;;;;;;5057767;28;20029;-78
2023/04/29 01:04:27;;;;;;;44.27;24.67;;;10.50;99.90;;;;;;5074470;28;20027;-79
2023/04/29 01:07:12;;;;;;;39.80;23.37;;;10.50;99.90;;;;;;5057674;28;20032;-79
2023/04/29 01:09:54;;;;;;;41.45;23.75;;;10.50;99.90;;;;;;5075647;28;20392;-78
2023/04/29 01:12:36;;;;;;;38.50;23.43;;;10.50;99.90;;;;;;5074344;28;20025;-78
2023/04/29 01:15:43;;;;;;;40.03;24.50;;;10.50;99.90;;;;;;5075661;28;20377;-78
2023/04/29 01:18:23;;;;;;;42.17;23.43;;;10.50;99.90;;;;;;5075545;28;20029;-79
2023/04/29 01:20:49;;;;;;;39.70;23.17;;;10.50;99.90;;;;;;5075324;28;20045;-78
2023/04/29 01:23:15;;;;;;;35.60;22.17;;;10.50;99.90;;;;;;5057248;28;20056;-79
2023/04/29 01:25:42;;;;;;;38.87;20.77;;;10.50;99.90;;;;;;5056374;28;20056;-78
2023/04/29 01:28:35;;;;;;;35.60;21.77;;;10.50;99.90;;;;;;5073878;28;20492;-78
2023/04/29 01:31:10;;;;;;;36.43;21.93;;;10.50;99.90;;;;;;5075190;28;20029;-78
2023/04/29 01:34:08;;;;;;;33.00;20.40;;;10.50;99.90;;;;;;5073923;28;20028;-78
2023/04/29 01:36:56;;;;;;;35.63;21.50;;;10.50;99.90;;;;;;5069215;28;20044;-78
2023/04/29 01:39:40;;;;;;;36.60;21.13;;;10.50;99.90;;;;;;5073866;28;20056;-79
2023/04/29 01:42:05;;;;;;;;;;;10.50;99.90;;;;;;5075435;28;20021;-78
2023/04/29 01:44:32;;;;;;;35.50;21.53;;;10.50;99.90;;;;;;5075025;28;19910;-79
2023/04/29 01:47:00;;;;;;;37.97;21.93;;;10.50;99.90;;;;;;5073837;28;20499;-77
2023/04/29 01:49:26;;;;;;;41.00;22.07;;;10.50;99.90;;;;;;5057247;28;20025;-78
2023/04/29 01:51:52;;;;;;;39.10;21.57;;;10.50;99.90;;;;;;5074781;28;20029;-77
2023/04/29 01:54:18;;;;;;;38.97;21.13;;;10.50;99.90;;;;;;5074778;28;20412;-78
2023/04/29 01:56:44;;;;;;;44.10;23.73;;;10.50;99.90;;;;;;5056608;28;20028;-79
2023/04/29 01:59:10;;;;;;;41.70;23.63;;;10.50;99.90;;;;;;5073480;28;20431;-78
2023/04/29 02:01:36;;;;;;;40.13;22.93;;;10.50;99.90;;;;;;5073592;28;20021;-78
2023/04/29 02:04:02;;;;;;;40.17;22.97;;;10.50;99.90;;;;;;5074718;28;20032;-78
2023/04/29 02:06:28;;;;;;;34.93;20.90;;;10.50;99.90;;;;;;5073200;28;20388;-78
2023/04/29 02:08:53;;;;;;;38.70;20.97;;;10.50;99.90;;;;;;5073239;28;20032;-79
2023/04/29 02:11:19;;;;;;;37.20;21.60;;;10.50;99.90;;;;;;5073130;28;20023;-78
2023/04/29 02:13:46;;;;;;;39.43;22.20;;;10.50;99.90;;;;;;5074343;28;20027;-79
2023/04/29 02:16:14;;;;;;;36.40;20.80;;;10.50;99.90;;;;;;5056363;28;20033;-78
2023/04/29 02:18:40;;;;;;;34.83;20.60;;;10.50;99.90;;;;;;5074329;28;20020;-77
2023/04/29 02:21:06;;;;;;;36.83;21.20;;;10.50;99.90;;;;;;5056608;28;20404;-78
2023/04/29 02:23:32;;;;;;;37.70;21.43;;;10.40;99.90;;;;;;5074329;28;20021;-78
2023/04/29 02:25:58;;;;;;;40.70;22.77;;;10.50;99.90;;;;;;5072877;28;20036;-79
2023/04/29 02:28:24;;;;;;;36.17;20.37;;;10.50;99.90;;;;;;5055993;28;20405;-78
2023/04/29 02:30:50;;;;;;;36.43;20.90;;;10.50;99.90;;;;;;5072899;28;20052;-79
2023/04/29 02:33:17;;;;;;;35.97;20.73;;;10.50;99.90;;;;;;5074121;28;20546;-79
2023/04/29 02:35:43;;;;;;;36.30;19.60;;;10.50;99.90;;;;;;5072407;28;20029;-79
2023/04/29 02:38:09;;;;;;;32.73;19.37;;;10.50;99.90;;;;;;5056011;28;20074;-78
2023/04/29 02:40:40;;;;;;;29.80;16.93;;;10.50;99.90;;;;;;5056089;28;20036;-78
2023/04/29 02:43:05;;;;;;;29.03;18.40;;;10.50;99.90;;;;;;5073785;28;20056;-79
2023/04/29 02:45:31;;;;;;;37.40;19.80;;;10.50;99.90;;;;;;5072638;28;20063;-78
2023/04/29 02:47:56;;;;;;;32.73;18.53;;;10.50;99.90;;;;;;5072404;28;20423;-79
2023/04/29 02:50:24;;;;;;;31.80;17.83;;;10.50;99.90;;;;;;5055789;28;20370;-78
2023/04/29 02:52:50;;;;;;;33.70;19.00;;;10.50;99.90;;;;;;5056076;28;20040;-78
2023/04/29 02:55:15;;;;;;;34.87;19.20;;;10.50;99.90;;;;;;5055557;28;20032;-78
2023/04/29 02:57:42;;;;;;;30.30;19.60;;;10.50;99.90;;;;;;5073475;28;20427;-77
2023/04/29 03:00:08;;;;;;;37.27;20.60;;;10.50;99.90;;;;;;5071512;28;20020;-78
2023/04/29 03:02:34;;;;;;;35.70;18.40;;;10.50;99.90;;;;;;5063913;28;20021;-79
2023/04/29 03:05:00;;;;;;;35.47;19.70;;;10.50;99.90;;;;;;5054756;28;20423;-79
2023/04/29 03:07:27;;;;;;;35.80;20.27;;;10.50;99.90;;;;;;5053836;28;20080;-78
2023/04/29 03:09:53;;;;;;;32.83;18.93;;;10.50;99.90;;;;;;5071307;28;20033;-79
2023/04/29 03:12:19;;;;;;;31.80;18.87;;;10.50;99.90;;;;;;5055774;28;20024;-79
2023/04/29 03:14:45;;;;;;;33.50;18.57;;;10.50;99.90;;;;;;5038551;28;20369;-79
2023/04/29 03:17:11;;;;;;;31.80;17.17;;;10.50;99.90;;;;;;5072691;28;20127;-78
2023/04/29 03:19:36;;;;;;;29.67;18.07;;;10.50;99.90;;;;;;5071916;28;20024;-80
2023/04/29 03:22:02;;;;;;;30.83;18.50;;;10.50;99.90;;;;;;5071995;28;20082;-78
2023/04/29 03:24:28;;;;;;;30.27;16.47;;;10.50;99.90;;;;;;5072059;28;20017;-77
2023/04/29 03:26:53;;;;;;;31.83;18.40;;;10.50;99.90;;;;;;5071986;28;20051;-77
2023/04/29 03:29:19;;;;;;;34.67;19.07;;;10.50;99.90;;;;;;5055299;28;20529;-78
2023/04/29 03:31:45;;;;;;;35.90;18.83;;;10.50;99.90;;;;;;5055190;28;20480;-78
2023/04/29 03:34:13;;;;;;;31.77;18.07;;;10.50;99.90;;;;;;5071919;28;20027;-79
2023/04/29 03:36:39;;;;;;;31.37;18.30;;;10.50;99.90;;;;;;5071892;28;20024;-78
2023/04/29 03:39:04;;;;;;;31.87;18.53;;;10.50;99.90;;;;;;5055178;28;20035;-78
2023/04/29 03:41:30;;;;;;;31.77;18.17;;;10.50;99.90;;;;;;5055354;28;20025;-78
2023/04/29 03:43:59;;;;;;;34.87;20.10;;;10.50;99.90;;;;;;5071667;28;20070;-78
2023/04/29 03:46:26;;;;;;;32.07;18.63;;;10.50;99.90;;;;;;5055487;28;20094;-78
2023/04/29 03:48:54;;;;;;;30.43;18.03;;;10.50;99.90;;;;;;5074280;28;20016;-78
2023/04/29 03:51:21;;;;;;;30.73;18.17;;;10.50;99.90;;;;;;5043509;28;20024;-79
2023/04/29 03:53:47;;;;;;;32.53;18.40;;;10.50;99.90;;;;;;5075953;28;20032;-78
2023/04/29 03:56:12;;;;;;;32.10;18.63;;;10.50;99.90;;;;;;5059069;28;20024;-78
2023/04/29 03:58:38;;;;;;;31.20;17.93;;;10.50;99.90;;;;;;5059093;28;20078;-78
2023/04/29 04:01:04;;;;;;;34.90;20.20;;;10.50;99.90;;;;;;5059022;28;20059;-78
2023/04/29 04:03:29;;;;;;;32.40;20.40;;;10.50;99.90;;;;;;5059200;28;20028;-78
2023/04/29 04:05:55;;;;;;;30.43;17.97;;;10.50;99.90;;;;;;5058967;28;20377;-79
2023/04/29 04:08:20;;;;;;;32.08;18.67;;;10.50;99.90;;;;;;5058913;28;20115;-78
2023/04/29 04:10:46;;;;;;;29.13;17.60;;;10.50;99.90;;;;;;5064075;28;20455;-77
2023/04/29 04:13:13;;;;;;;32.43;17.63;;;10.50;99.90;;;;;;5087417;28;20028;-78
2023/04/29 04:15:39;;;;;;;30.07;17.87;;;10.50;99.90;;;;;;5074413;28;20036;-78
2023/04/29 04:18:05;;;;;;;34.50;18.90;;;10.40;99.90;;;;;;5074557;28;20111;-78
2023/04/29 04:20:30;;;;;;;27.63;17.33;;;10.40;99.90;;;;;;5073580;28;20104;-78
2023/04/29 04:22:58;;;;;;;30.83;19.27;;;10.40;99.90;;;;;;5073885;28;20056;-78
2023/04/29 04:25:24;;;;;;;31.27;18.33;;;10.40;99.90;;;;;;5057038;28;20024;-78
2023/04/29 04:27:50;;;;;;;32.40;17.97;;;10.50;99.90;;;;;;5076206;28;20037;-79
2023/04/29 04:30:15;;;;;;;31.97;17.13;;;10.50;99.90;;;;;;5075209;28;20051;-78
2023/04/29 04:32:41;;;;;;;24.20;15.13;;;10.50;99.90;;;;;;5075207;28;20020;-78
2023/04/29 04:35:07;;;;;;;26.03;16.27;;;10.50;99.90;;;;;;5075092;28;20044;-79
2023/04/29 04:37:33;;;;;;;32.57;17.37;;;10.50;99.90;;;;;;5075100;28;20052;-79
2023/04/29 04:39:58;;;;;;;30.10;17.50;;;10.50;99.90;;;;;;5058288;28;20422;-79
2023/04/29 04:42:24;;;;;;;27.00;16.13;;;10.50;99.90;;;;;;5075023;28;20027;-79
2023/04/29 04:44:50;;;;;;;26.23;14.70;;;10.50;99.90;;;;;;5058108;28;20028;-79
2023/04/29 04:47:16;;;;;;;25.67;15.10;;;10.60;99.90;;;;;;5058213;28;20033;-79
2023/04/29 04:49:42;;;;;;;26.27;15.10;;;10.60;99.90;;;;;;5074819;28;20502;-79
2023/04/29 04:52:08;;;;;;;24.03;15.83;;;10.60;99.90;;;;;;5058239;28;20063;-78
2023/04/29 04:54:34;;;;;;;25.77;16.20;;;10.60;99.90;;;;;;5074760;28;20060;-79
2023/04/29 04:56:59;;;;;;;24.33;15.83;;;10.60;99.90;;;;;;5058819;28;20112;-85
2023/04/29 04:59:25;;;;;;;23.20;14.37;;;10.60;99.90;;;;;;5075336;28;20028;-86
2023/04/29 05:01:51;;;;;;;24.83;15.60;;;10.60;99.90;;;;;;5076078;28;20082;-87
2023/04/29 05:04:16;;;;;;;21.57;13.53;;;10.60;99.90;;;;;;5075427;28;20523;-88
2023/04/29 05:06:42;;;;;;;26.20;16.73;;;10.60;99.90;;;;;;5075241;28;20071;-87
2023/04/29 05:09:07;;;;;;;24.10;15.17;;;10.60;99.90;;;;;;5075811;28;20182;-86
2023/04/29 05:11:33;;;;;;;25.90;16.10;;;10.60;99.90;;;;;;5058612;28;20107;-86
2023/04/29 05:13:59;;;;;;;28.97;16.27;;;10.60;99.90;;;;;;5077269;28;20029;-86
2023/04/29 05:16:25;;;;;;;25.40;14.73;;;10.60;99.90;;;;;;5076580;28;20388;-87
2023/04/29 05:18:50;;;;;;;24.63;15.93;;;10.60;99.90;;;;;;5057904;28;20025;-88
2023/04/29 05:21:16;;;;;;;24.87;15.67;;;10.70;99.90;;;;;;5074995;28;20243;-87
2023/04/29 05:23:43;;;;;;;22.43;14.53;;;10.70;99.90;;;;;;5074919;28;20044;-88
2023/04/29 05:26:09;;;;;;;24.30;15.87;;;10.70;99.90;;;;;;5074492;28;20090;-87
2023/04/29 05:28:34;;;;;;;27.33;15.63;;;10.70;99.90;;;;;;5075364;28;20112;-87
2023/04/29 05:31:00;;;;;;;24.35;15.80;;;10.80;99.90;;;;;;5074327;28;20036;-87
2023/04/29 05:33:26;;;;;;;20.52;14.57;;;10.80;99.90;;;;;;5074221;28;20032;-88
2023/04/29 05:35:51;;;;;;;24.23;15.02;;;10.80;99.90;;;;;;5057455;28;20055;-87
2023/04/29 05:38:17;;;;;;;20.77;14.40;;;10.80;99.90;;;;;;5074112;28;20024;-88
2023/04/29 05:40:42;;;;;;;26.98;13.43;;;10.80;99.90;;;;;;5057251;28;20066;-87
2023/04/29 05:43:08;;;;;;;23.73;14.45;;;10.90;99.90;;;;;;5075159;28;20043;-87
2023/04/29 05:45:34;;;;;;;24.35;14.98;;;10.90;99.90;;;;;;5075088;28;20085;-87
2023/04/29 05:47:59;;;;;;;23.50;14.55;;;11.00;99.90;;;;;;5057485;28;20082;-88
2023/04/29 05:50:25;;;;;;;24.37;16.10;;;11.00;99.90;;;;;;5074230;28;20032;-87
2023/04/29 05:52:50;;;;;;;24.55;15.60;;;11.00;99.90;;;;;;5073998;28;20036;-88
2023/04/29 05:55:16;;;;;;;22.27;13.13;;;11.00;99.90;;;;;;5073845;28;20032;-88
2023/04/29 05:57:42;;;;;;;21.75;13.95;;;11.10;99.90;;;;;;5074930;28;20033;-86
2023/04/29 06:00:08;;;;;;;25.77;16.52;;;11.10;99.90;;;;;;5056981;28;20028;-88
2023/04/29 06:02:34;;;;;;;22.00;14.85;;;11.10;99.90;;;;;;5073627;28;20447;-87
2023/04/29 06:05:00;;;;;;;19.63;13.70;;;11.10;99.90;;;;;;5056807;28;20373;-84
2023/04/29 06:07:26;;;;;;;21.15;13.75;;;11.20;99.90;;;;;;5074814;28;20086;-87
2023/04/29 06:09:52;;;;;;;24.30;14.55;;;11.20;99.90;;;;;;5073342;28;20036;-86
2023/04/29 06:12:17;;;;;;;24.15;15.38;;;11.30;99.90;;;;;;5072795;28;20025;-85
2023/04/29 06:14:43;;;;;;;21.50;14.40;;;11.30;99.90;;;;;;5074589;28;20538;-88
2023/04/29 06:17:09;;;;;;;24.80;15.20;;;11.40;99.90;;;;;;5073104;28;20155;-87
2023/04/29 06:19:35;;;;;;;22.05;13.82;;;11.30;99.90;;;;;;5056809;28;20028;-87
2023/04/29 06:22:01;;;;;;;21.10;13.95;;;11.40;99.90;;;;;;5073512;28;20082;-87
2023/04/29 06:24:26;;;;;;;24.13;14.68;;;11.50;99.90;;;;;;5056065;28;20028;-83
2023/04/29 06:26:52;;;;;;;22.35;14.13;;;11.50;99.90;;;;;;5072563;28;20497;-85
2023/04/29 06:29:18;;;;;;;19.67;13.25;;;11.50;99.90;;;;;;5073658;28;20043;-87
2023/04/29 06:31:43;;;;;;;27.05;13.20;;;11.60;99.90;;;;;;5072118;28;20028;-85
2023/04/29 06:34:10;;;;;;;23.42;13.93;;;11.60;99.90;;;;;;5056487;28;20036;-87
2023/04/29 06:36:35;;;;;;;20.50;14.05;;;11.60;99.90;;;;;;5072728;28;20075;-84
2023/04/29 06:39:01;;;;;;;26.35;14.13;;;11.70;99.90;;;;;;5071823;28;20028;-84
2023/04/29 06:41:27;;;;;;;31.17;13.43;;;11.70;99.90;;;;;;5069683;28;20059;-86
2023/04/29 06:43:52;;;;;;;22.38;12.95;;;11.80;99.90;;;;;;5053463;28;20482;-87
2023/04/29 06:46:18;;;;;;;21.50;12.98;;;11.80;99.90;;;;;;5053226;28;20078;-84
2023/04/29 06:48:43;;;;;;;21.10;12.93;;;11.90;99.90;;;;;;5071755;28;20036;-86
2023/04/29 06:51:09;;;;;;;25.52;13.95;;;11.90;99.90;;;;;;5071785;28;20052;-83
2023/04/29 06:53:35;;;;;;;20.98;12.82;;;11.90;99.90;;;;;;5070531;28;20557;-83
2023/04/29 06:56:01;;;;;;;20.05;12.70;;;12.00;99.90;;;;;;5070851;28;20452;-83
2023/04/29 06:58:26;;;;;;;18.85;13.40;;;12.00;99.90;;;;;;5071088;28;20024;-84
2023/04/29 07:00:52;;;;;;;22.63;13.20;;;12.10;99.90;;;;;;5071309;28;20510;-85
2023/04/29 07:03:18;;;;;;;18.55;12.20;;;12.10;99.90;;;;;;5053745;28;20124;-82
2023/04/29 07:05:44;;;;;;;20.35;12.07;;;12.20;99.90;;;;;;5070160;28;20036;-84
2023/04/29 07:08:11;;;;;;;17.60;11.70;;;12.20;99.90;;;;;;5070054;28;20388;-84
2023/04/29 07:10:37;;;;;;;19.95;12.40;;;12.30;99.90;;;;;;5070943;28;20063;-85
2023/04/29 07:13:03;;;;;;;22.05;11.95;;;12.30;99.90;;;;;;5053763;28;20068;-81
2023/04/29 07:15:30;;;;;;;18.85;11.32;;;12.40;99.90;;;;;;5070526;28;20039;-83
2023/04/29 07:17:56;;;;;;;19.90;12.13;;;12.40;99.90;;;;;;5070020;28;20021;-86
2023/04/29 07:20:22;;;;;;;19.45;11.68;;;12.50;99.90;;;;;;5071375;28;20029;-83
2023/04/29 07:22:47;;;;;;;17.73;11.48;;;12.50;99.90;;;;;;5069355;28;20044;-86
2023/04/29 07:25:13;;;;;;;20.55;10.60;;;12.60;99.90;;;;;;5071326;28;20435;-83
2023/04/29 07:27:39;;;;;;;19.20;10.70;;;12.60;99.90;;;;;;5069929;28;20556;-84
2023/04/29 07:30:05;;;;;;;20.73;10.18;;;12.70;99.90;;;;;;5071173;28;20111;-85
2023/04/29 07:32:31;;;;;;;20.38;11.10;;;12.70;99.90;;;;;;5071368;28;20415;-86
2023/04/29 07:34:58;;;;;;;16.58;10.13;;;12.80;99.90;;;;;;5073346;28;20089;-87
2023/04/29 07:37:24;;;;;;;18.50;11.35;;;12.90;99.90;;;;;;5071938;28;20060;-85
2023/04/29 07:39:50;;;;;;;18.65;10.65;;;12.90;99.90;;;;;;5072841;28;20066;-85
2023/04/29 07:42:15;;;;;;;15.20;9.98;;;13.00;99.90;;;;;;5072227;28;20099;-85
2023/04/29 07:44:41;;;;;;;15.85;9.98;;;13.10;99.90;;;;;;5071952;28;20032;-85
2023/04/29 07:47:06;;;;;;;16.55;10.23;;;13.10;99.90;;;;;;5073235;28;20025;-84
2023/04/29 07:49:32;;;;;;;19.02;10.85;;;13.20;99.90;;;;;;5072041;28;20050;-87
2023/04/29 07:51:58;;;;;;;17.48;10.48;;;13.30;99.50;;;;;;5071961;28;20027;-84
2023/04/29 07:54:24;;;;;;;16.75;9.88;;;13.30;99.20;;;;;;5071811;28;20036;-84
2023/04/29 07:56:49;;;;;;;18.40;10.07;;;13.40;99.00;;;;;;5054530;28;20039;-86
2023/04/29 07:59:15;;;;;;;15.80;9.70;;;13.40;98.50;;;;;;5053411;28;20426;-86
2023/04/29 08:01:41;;;;;;;17.30;9.63;;;13.50;98.30;;;;;;5072905;28;20021;-84
2023/04/29 08:04:07;;;;;;;15.43;9.35;;;13.60;97.90;;;;;;5071466;28;20384;-84
2023/04/29 08:06:33;;;;;;;16.83;9.95;;;13.70;97.60;;;;;;5072618;28;20075;-86
2023/04/29 08:08:59;;;;;;;16.83;8.73;;;13.70;97.40;;;;;;5068947;28;20025;-86
2023/04/29 08:11:25;;;;;;;15.80;8.48;;;13.80;97.20;;;;;;5072667;28;20078;-86
2023/04/29 08:13:52;;;;;;;16.30;9.25;;;13.90;96.70;;;;;;5073434;28;20017;-84
2023/04/29 08:16:17;;;;;;;16.13;8.63;;;14.00;96.00;;;;;;5071762;28;20029;-87
2023/04/29 08:18:43;;;;;;;16.55;9.18;;;14.00;95.70;;;;;;5055047;28;20392;-86
2023/04/29 08:21:10;;;;;;;13.82;8.35;;;14.10;95.30;;;;;;5071630;28;20028;-85
2023/04/29 08:23:39;;;;;;;12.77;7.82;;;14.10;95.00;;;;;;5072866;28;20017;-87
2023/04/29 08:26:05;;;;;;;15.88;7.57;;;14.20;94.90;;;;;;5071736;28;20166;-87
2023/04/29 08:28:31;;;;;;;17.90;8.05;;;14.30;94.60;;;;;;5072703;28;20124;-87
2023/04/29 08:30:59;;;;;;;14.27;7.35;;;14.40;94.30;;;;;;5071526;28;20093;-83
2023/04/29 08:33:25;;;;;;;14.40;8.02;;;14.50;94.00;;;;;;5071713;28;20021;-86
2023/04/29 08:35:58;;;;;;;12.45;6.68;;;14.60;93.80;;;;;;5075256;28;20170;-87
2023/04/29 08:38:24;;;;;;;15.02;6.80;;;14.80;93.70;;;;;;5074735;28;20103;-87
2023/04/29 08:40:49;;;;;;;12.15;6.50;;;14.90;93.50;;;;;;5074795;28;20159;-88
2023/04/29 08:43:15;;;;;;;13.80;6.72;;;14.90;93.30;;;;;;5075914;28;20485;-88
2023/04/29 08:45:47;;;;;;;10.98;6.10;;;15.10;92.70;;;;;;5075947;28;20029;-87
2023/04/29 08:48:13;;;;;;;15.48;7.05;;;15.20;92.70;;;;;;5075668;28;20492;-87
2023/04/29 08:50:40;;;;;;;11.68;6.53;;;15.30;92.40;;;;;;5075610;28;20017;-87
2023/04/29 08:53:10;;;;;;;11.77;6.45;;;15.30;91.80;;;;;;5076104;28;20364;-87
2023/04/29 08:55:43;;;;;;;9.88;5.78;;;15.40;91.20;;;;;;5088730;28;20016;-87
2023/04/29 08:58:09;;;;;;;13.82;5.95;;;15.50;91.10;;;;;;5076001;28;20096;-86
2023/04/29 09:00:36;;;;;;;11.52;5.75;;;15.60;90.70;;;;;;5075305;28;20032;-86
2023/04/29 09:03:24;;;;;;;10.73;5.68;;;15.70;90.30;;;;;;5074412;28;20020;-87
2023/04/29 09:05:54;;;;;;;11.48;5.63;;;15.70;89.40;;;;;;5072725;28;20255;-86
2023/04/29 09:08:22;;;;;;;10.65;5.30;;;15.80;88.50;;;;;;5056540;28;20024;-86
2023/04/29 09:10:49;;;;;;;11.07;5.35;;;15.80;86.80;;;;;;5073991;28;20025;-89
2023/04/29 09:13:29;;;;;;;8.50;4.85;;;15.80;85.50;;;;;;5075083;28;20035;-87
2023/04/29 09:15:56;;;;;;;10.82;5.03;;;15.80;85.70;;;;;;5074069;28;20107;-87
2023/04/29 09:18:46;;;;;;;7.93;3.97;;;15.80;84.70;;;;;;5073918;28;20029;-87
2023/04/29 09:21:14;;;;;;;9.50;4.53;;;15.80;83.90;;;;;;5073868;28;20120;-84
2023/04/29 09:23:40;;;;;;;14.63;5.13;;;15.90;84.40;;;;;;5074289;28;20144;-88
2023/04/29 09:26:06;;;;;;;7.63;4.70;;;15.90;84.20;;;;;;5057818;28;20032;-86
2023/04/29 09:28:32;;;;;;;9.23;5.32;;;15.90;83.70;;;;;;5075626;28;20110;-88
2023/04/29 09:30:58;;;;;;;12.80;4.97;;;15.90;83.20;;;;;;5074091;28;20086;-88
2023/04/29 09:33:27;;;;;;;11.90;4.95;;;16.00;83.50;;;;;;5074270;28;20431;-88
2023/04/29 09:35:53;;;;;;;9.35;5.03;;;16.00;83.30;;;;;;5074295;28;20123;-88
2023/04/29 09:38:19;;;;;;;10.65;6.03;;;16.00;82.90;;;;;;5074066;28;20166;-88
2023/04/29 09:40:45;;;;;;;11.55;4.93;;;16.00;81.30;;;;;;5057334;28;20036;-85
2023/04/29 09:43:13;;;;;;;8.77;4.43;;;16.00;80.80;;;;;;5073251;28;20115;-86
2023/04/29 09:45:44;;;;;;;7.53;3.47;;;16.00;80.90;;;;;;5053543;28;20077;-87
2023/04/29 09:48:11;;;;;;;6.82;3.33;;;16.10;80.90;;;;;;5074567;28;20376;-88
2023/04/29 09:50:42;;;;;;;6.43;3.55;;;16.10;80.40;;;;;;5045220;28;20021;-87
2023/04/29 09:53:10;;;;;;;8.68;3.70;;;16.20;80.00;;;;;;5054783;28;20040;-86
2023/04/29 09:55:56;;;;;;;7.32;3.67;;;16.40;80.40;;;;;;5054659;28;20047;-88
2023/04/29 09:58:32;;;;;;;8.50;3.92;;;16.50;79.10;;;;;;5054768;28;20112;-84
2023/04/29 10:01:00;;;;;;;8.52;3.75;;;16.70;77.90;;;;;;5054682;28;20033;-87
2023/04/29 10:03:31;;;;;;;9.27;3.20;;;16.80;77.30;;;;;;5037156;28;20043;-87
2023/04/29 10:05:59;;;;;;;6.80;3.10;;;16.90;77.20;;;;;;5054817;28;20024;-88
2023/04/29 10:08:25;;;;;;;6.18;3.25;;;17.00;77.10;;;;;;5037168;28;20032;-88
2023/04/29 10:10:56;;;;;;;10.18;4.18;;;17.10;76.30;;;;;;5054738;28;20037;-86
2023/04/29 10:13:24;;;;;;;10.35;4.30;;;17.20;75.80;;;;;;5053441;28;20409;-87
2023/04/29 10:15:57;;;;;;;6.10;3.10;;;17.20;75.70;;;;;;5053232;28;20108;-83
2023/04/29 10:18:35;;;;;;;7.80;3.70;;;17.30;74.80;;;;;;5054800;28;20055;-88
2023/04/29 10:21:02;;;;;;;5.70;2.17;;;17.20;74.40;;;;;;5059049;28;20067;-86
2023/04/29 10:23:29;;;;;;;7.63;3.30;;;17.20;74.10;;;;;;5072901;28;20047;-88
2023/04/29 10:25:58;;;;;;;7.05;3.47;;;17.20;73.20;;;;;;5074150;28;20012;-87
2023/04/29 10:28:24;;;;;;;7.22;3.40;;;17.20;73.20;;;;;;5073872;28;20471;-88
2023/04/29 10:30:51;;;;;;;8.20;3.15;;;17.10;72.10;;;;;;5073281;28;20108;-88
2023/04/29 10:33:17;;;;;;;6.40;2.42;;;17.10;72.00;;;;;;5073022;28;20017;-87
2023/04/29 10:35:43;;;;;;;4.95;2.17;;;17.10;72.00;;;;;;5073054;28;20032;-88
2023/04/29 10:38:34;;;;;;;5.72;2.22;;;17.10;72.30;;;;;;5074408;28;20027;-87
2023/04/29 10:41:07;;;;;;;6.13;3.05;;;17.20;72.30;;;;;;5072237;28;20035;-87
2023/04/29 10:43:33;;;;;;;5.18;2.90;;;17.20;72.10;;;;;;5073966;28;20016;-86
2023/04/29 10:46:18;;;;;;;5.28;2.53;;;17.20;71.70;;;;;;5072666;28;20035;-87
2023/04/29 10:48:45;;;;;;;6.28;2.75;;;17.20;71.60;;;;;;5073933;28;20544;-86
2023/04/29 10:51:11;;;;;;;5.50;2.72;;;17.10;71.50;;;;;;5073963;28;20089;-87
2023/04/29 10:53:57;;;;;;;7.80;2.63;;;17.20;71.30;;;;;;5073853;28;20047;-86
2023/04/29 10:56:38;;;;;;;5.97;2.20;;;17.10;71.00;;;;;;5085189;28;20102;-86
2023/04/29 10:59:04;;;;;;;5.47;2.22;;;17.10;70.80;;;;;;5072271;28;20056;-87
2023/04/29 11:01:42;;;;;;;5.80;2.42;;;17.20;70.70;;;;;;5089505;28;20028;-87
2023/04/29 11:04:08;;;;;;;5.85;2.53;;;17.20;70.20;;;;;;5072921;28;20024;-86
2023/04/29 11:06:34;;;;;;;5.03;1.88;;;17.30;69.90;;;;;;5072239;28;20055;-78
2023/04/29 11:09:21;;;;;;;7.05;2.08;;;17.40;70.00;;;;;;5073519;28;20032;-77
2023/04/29 11:12:02;;;;;;;4.95;2.10;;;17.50;69.80;;;;;;5073541;28;20059;-77
2023/04/29 11:14:37;;;;;;;4.60;1.92;;;17.60;69.80;;;;;;5073372;28;20515;-78
2023/04/29 11:17:07;;;;;;;4.85;2.00;;;17.80;69.60;;;;;;5073557;28;20047;-77
2023/04/29 11:19:35;;;;;;;4.63;2.25;;;17.90;69.60;;;;;;5073487;28;20086;-78
2023/04/29 11:22:10;;;;;;;4.80;1.73;;;18.10;69.60;;;;;;5073350;28;20020;-77
2023/04/29 11:24:36;;;;;;;5.40;1.42;;;18.50;69.50;;;;;;5073223;28;20035;-78
2023/04/29 11:27:05;;;;;;;3.83;1.48;;;18.80;68.90;;;;;;5073283;28;20021;-77
2023/04/29 11:29:32;;;;;;;3.78;1.60;;;19.00;67.80;;;;;;5073115;28;20040;-77
2023/04/29 11:32:00;;;;;;;3.70;1.50;;;19.10;66.20;;;;;;5072210;28;20024;-78
2023/04/29 11:34:26;;;;;;;3.78;1.58;;;19.20;65.80;;;;;;5073159;28;20097;-78
2023/04/29 11:36:52;;;;;;;3.78;1.45;;;19.40;65.50;;;;;;5072943;28;20060;-78
2023/04/29 11:39:18;;;;;;;3.13;1.20;;;19.60;65.50;;;;;;5073096;28;20500;-76
2023/04/29 11:41:43;;;;;;;3.40;1.30;;;19.70;64.30;;;;;;5073048;28;20029;-77
2023/04/29 11:44:11;;;;;;;3.03;1.30;;;20.00;64.50;;;;;;5073105;28;20546;-77
2023/04/29 11:46:36;;;;;;;4.38;1.35;;;20.60;64.20;;;;;;5071450;28;20104;-77
2023/04/29 11:49:02;;;;;;;4.35;1.35;;;21.10;63.70;;;;;;5073185;28;20078;-77
2023/04/29 11:51:28;;;;;;;6.07;1.55;;;21.30;62.70;;;;;;5071707;28;20025;-77
2023/04/29 11:53:54;;;;;;;5.32;1.58;;;21.30;61.50;;;;;;5071451;28;20381;-77
2023/04/29 11:56:26;;;;;;;3.65;1.38;;;21.20;60.50;;;;;;5072747;28;20035;-77
2023/04/29 11:58:56;;;;;;;5.75;1.95;;;21.00;60.10;;;;;;5073004;28;20424;-77
2023/04/29 12:01:24;;;;;;;5.57;1.48;;;20.90;59.80;;;;;;5072849;28;20108;-77
2023/04/29 12:03:49;;;;;;;3.05;1.55;;;20.80;59.20;;;;;;5072749;28;20119;-77
2023/04/29 12:06:15;;;;;;;4.05;1.73;;;20.80;59.30;;;;;;5071356;28;20507;-77
2023/04/29 12:08:41;;;;;;;4.13;1.50;;;20.70;59.10;;;;;;5071921;28;20032;-77
2023/04/29 12:11:07;;;;;;;4.80;1.40;;;20.80;58.80;;;;;;5071354;28;20431;-77
2023/04/29 12:13:36;;;;;;;3.90;1.50;;;20.70;58.80;;;;;;5073453;28;20522;-77
2023/04/29 12:16:03;;;;;;;6.22;1.60;;;20.60;58.10;;;;;;5074419;28;20336;-77
2023/04/29 12:18:29;;;;;;;2.85;1.27;;;20.50;58.00;;;;;;5074969;28;20025;-77
2023/04/29 12:20:55;;;;;;;5.75;1.77;;;20.40;57.90;;;;;;5076312;28;20101;-78
2023/04/29 12:23:23;;;;;;;5.53;1.50;;;20.30;56.90;;;;;;5076717;28;20480;-78
2023/04/29 12:25:59;;;;;;;4.22;1.67;;;20.00;57.40;;;;;;5075959;28;20021;-77
2023/04/29 12:28:26;;;;;;;3.47;1.52;;;19.90;57.50;;;;;;5075069;28;20408;-78
2023/04/29 12:30:53;;;;;;;6.10;1.95;;;19.80;58.00;;;;;;5076335;28;20162;-78
2023/04/29 12:33:24;;;;;;;3.38;1.13;;;19.80;57.80;;;;;;5074568;28;20024;-77
2023/04/29 12:35:51;;;;;;;4.72;1.20;;;19.90;58.40;;;;;;5074734;28;20047;-77